sensor_id;sensor_type;location;lat;lon;timestamp;pressure;altitude;pressure_sealevel;temperature
22322;BMP180;11328;53.928;18.522;2023-04-24T00:02:00;99414.00;;;17.40
22322;BMP180;11328;53.928;18.522;2023-04-24T00:04:27;99418.00;;;17.40
22322;BMP180;11328;53.928;18.522;2023-04-24T00:06:54;99406.00;;;17.40
22322;BMP180;11328;53.928;18.522;2023-04-24T00:09:24;99406.00;;;17.40
22322;BMP180;11328;53.928;18.522;2023-04-24T00:11:51;99400.00;;;17.40
22322;BMP180;11328;53.928;18.522;2023-04-24T00:14:18;99400.00;;;17.30
22322;BMP180;11328;53.928;18.522;2023-04-24T00:16:45;99384.00;;;17.20
22322;BMP180;11328;53.928;18.522;2023-04-24T00:19:12;99392.00;;;17.10
22322;BMP180;11328;53.928;18.522;2023-04-24T00:21:40;99389.00;;;16.90
22322;BMP180;11328;53.928;18.522;2023-04-24T00:24:08;99382.00;;;16.80
22322;BMP180;11328;53.928;18.522;2023-04-24T00:26:38;99388.00;;;16.80
22322;BMP180;11328;53.928;18.522;2023-04-24T00:29:05;99383.00;;;16.80
22322;BMP180;11328;53.928;18.522;2023-04-24T00:31:32;99382.00;;;16.90
22322;BMP180;11328;53.928;18.522;2023-04-24T00:34:02;99383.00;;;16.80
22322;BMP180;11328;53.928;18.522;2023-04-24T00:36:30;99392.00;;;16.80
22322;BMP180;11328;53.928;18.522;2023-04-24T00:38:57;99391.00;;;16.70
22322;BMP180;11328;53.928;18.522;2023-04-24T00:41:25;99387.00;;;16.70
22322;BMP180;11328;53.928;18.522;2023-04-24T00:43:52;99397.00;;;16.70
22322;BMP180;11328;53.928;18.522;2023-04-24T00:46:20;99391.00;;;16.50
22322;BMP180;11328;53.928;18.522;2023-04-24T00:48:47;99390.00;;;16.40
22322;BMP180;11328;53.928;18.522;2023-04-24T00:51:14;99392.00;;;16.40
22322;BMP180;11328;53.928;18.522;2023-04-24T00:53:41;99392.00;;;16.40
22322;BMP180;11328;53.928;18.522;2023-04-24T00:56:09;99395.00;;;16.40
22322;BMP180;11328;53.928;18.522;2023-04-24T00:58:36;99389.00;;;16.50
22322;BMP180;11328;53.928;18.522;2023-04-24T01:01:03;99395.00;;;16.50
22322;BMP180;11328;53.928;18.522;2023-04-24T01:03:34;99395.00;;;16.40
22322;BMP180;11328;53.928;18.522;2023-04-24T01:06:05;99395.00;;;16.50
22322;BMP180;11328;53.928;18.522;2023-04-24T01:08:34;99389.00;;;16.50
22322;BMP180;11328;53.928;18.522;2023-04-24T01:11:04;99385.00;;;16.40
22322;BMP180;11328;53.928;18.522;2023-04-24T01:13:32;99384.00;;;16.30
22322;BMP180;11328;53.928;18.522;2023-04-24T01:16:00;99384.00;;;16.30
22322;BMP180;11328;53.928;18.522;2023-04-24T01:18:28;99380.00;;;16.30
22322;BMP180;11328;53.928;18.522;2023-04-24T01:20:59;99380.00;;;16.20
22322;BMP180;11328;53.928;18.522;2023-04-24T01:23:29;99378.00;;;16.40
22322;BMP180;11328;53.928;18.522;2023-04-24T01:25:56;99381.00;;;16.40
22322;BMP180;11328;53.928;18.522;2023-04-24T01:28:23;99371.00;;;16.40
22322;BMP180;11328;53.928;18.522;2023-04-24T01:30:50;99382.00;;;16.50
22322;BMP180;11328;53.928;18.522;2023-04-24T01:33:17;99380.00;;;16.50
22322;BMP180;11328;53.928;18.522;2023-04-24T01:35:45;99367.00;;;16.30
22322;BMP180;11328;53.928;18.522;2023-04-24T01:38:12;99375.00;;;16.40
22322;BMP180;11328;53.928;18.522;2023-04-24T01:40:39;99377.00;;;16.50
22322;BMP180;11328;53.928;18.522;2023-04-24T01:43:07;99369.00;;;16.40
22322;BMP180;11328;53.928;18.522;2023-04-24T01:45:34;99363.00;;;16.50
22322;BMP180;11328;53.928;18.522;2023-04-24T01:48:01;99350.00;;;16.40
22322;BMP180;11328;53.928;18.522;2023-04-24T01:50:28;99346.00;;;16.50
22322;BMP180;11328;53.928;18.522;2023-04-24T01:52:55;99344.00;;;16.40
22322;BMP180;11328;53.928;18.522;2023-04-24T01:55:22;99314.00;;;16.40
22322;BMP180;11328;53.928;18.522;2023-04-24T01:57:52;99351.00;;;16.30
22322;BMP180;11328;53.928;18.522;2023-04-24T02:00:19;99352.00;;;16.40
22322;BMP180;11328;53.928;18.522;2023-04-24T02:02:46;99355.00;;;16.40
22322;BMP180;11328;53.928;18.522;2023-04-24T02:05:14;99347.00;;;16.40
22322;BMP180;11328;53.928;18.522;2023-04-24T02:07:41;99350.00;;;16.40
22322;BMP180;11328;53.928;18.522;2023-04-24T02:10:09;99345.00;;;16.40
22322;BMP180;11328;53.928;18.522;2023-04-24T02:12:36;99346.00;;;16.30
22322;BMP180;11328;53.928;18.522;2023-04-24T02:15:04;99337.00;;;16.40
22322;BMP180;11328;53.928;18.522;2023-04-24T02:17:31;99334.00;;;16.30
22322;BMP180;11328;53.928;18.522;2023-04-24T02:19:58;99332.00;;;16.40
22322;BMP180;11328;53.928;18.522;2023-04-24T02:22:25;99326.00;;;16.30
22322;BMP180;11328;53.928;18.522;2023-04-24T02:24:52;99318.00;;;16.20
22322;BMP180;11328;53.928;18.522;2023-04-24T02:27:19;99328.00;;;16.10
22322;BMP180;11328;53.928;18.522;2023-04-24T02:29:46;99317.00;;;16.00
22322;BMP180;11328;53.928;18.522;2023-04-24T02:32:13;99325.00;;;16.00
22322;BMP180;11328;53.928;18.522;2023-04-24T02:34:42;99317.00;;;16.10
22322;BMP180;11328;53.928;18.522;2023-04-24T02:37:09;99314.00;;;16.00
22322;BMP180;11328;53.928;18.522;2023-04-24T02:39:36;99311.00;;;15.90
22322;BMP180;11328;53.928;18.522;2023-04-24T02:42:03;99315.00;;;15.90
22322;BMP180;11328;53.928;18.522;2023-04-24T02:44:30;99314.00;;;15.90
22322;BMP180;11328;53.928;18.522;2023-04-24T02:46:57;99306.00;;;15.80
22322;BMP180;11328;53.928;18.522;2023-04-24T02:49:24;99294.00;;;15.60
22322;BMP180;11328;53.928;18.522;2023-04-24T02:51:51;99295.00;;;15.60
22322;BMP180;11328;53.928;18.522;2023-04-24T02:54:18;99290.00;;;15.50
22322;BMP180;11328;53.928;18.522;2023-04-24T02:56:45;99292.00;;;15.40
22322;BMP180;11328;53.928;18.522;2023-04-24T02:59:13;99284.00;;;15.40
22322;BMP180;11328;53.928;18.522;2023-04-24T03:01:40;99288.00;;;15.50
22322;BMP180;11328;53.928;18.522;2023-04-24T03:04:07;99278.00;;;15.40
22322;BMP180;11328;53.928;18.522;2023-04-24T03:06:34;99283.00;;;15.50
22322;BMP180;11328;53.928;18.522;2023-04-24T03:09:02;99281.00;;;15.50
22322;BMP180;11328;53.928;18.522;2023-04-24T03:11:30;99291.00;;;15.50
22322;BMP180;11328;53.928;18.522;2023-04-24T03:13:57;99283.00;;;15.50
22322;BMP180;11328;53.928;18.522;2023-04-24T03:16:24;99284.00;;;15.70
22322;BMP180;11328;53.928;18.522;2023-04-24T03:18:51;99288.00;;;15.80
22322;BMP180;11328;53.928;18.522;2023-04-24T03:21:18;99282.00;;;15.80
22322;BMP180;11328;53.928;18.522;2023-04-24T03:23:47;99289.00;;;15.70
22322;BMP180;11328;53.928;18.522;2023-04-24T03:26:14;99290.00;;;15.70
22322;BMP180;11328;53.928;18.522;2023-04-24T03:28:41;99290.00;;;15.70
22322;BMP180;11328;53.928;18.522;2023-04-24T03:31:09;99293.00;;;15.70
22322;BMP180;11328;53.928;18.522;2023-04-24T03:33:36;99294.00;;;15.70
22322;BMP180;11328;53.928;18.522;2023-04-24T03:36:03;99292.00;;;15.60
22322;BMP180;11328;53.928;18.522;2023-04-24T03:38:31;99285.00;;;15.40
22322;BMP180;11328;53.928;18.522;2023-04-24T03:40:58;99285.00;;;15.40
22322;BMP180;11328;53.928;18.522;2023-04-24T03:43:25;99282.00;;;15.40
22322;BMP180;11328;53.928;18.522;2023-04-24T03:45:54;99282.00;;;15.40
22322;BMP180;11328;53.928;18.522;2023-04-24T03:48:21;99280.00;;;15.40
22322;BMP180;11328;53.928;18.522;2023-04-24T03:50:47;99278.00;;;15.50
22322;BMP180;11328;53.928;18.522;2023-04-24T03:53:14;99266.00;;;15.60
22322;BMP180;11328;53.928;18.522;2023-04-24T03:55:42;99275.00;;;15.60
22322;BMP180;11328;53.928;18.522;2023-04-24T03:58:08;99271.00;;;15.50
22322;BMP180;11328;53.928;18.522;2023-04-24T04:00:35;99269.00;;;15.40
22322;BMP180;11328;53.928;18.522;2023-04-24T04:03:04;99265.00;;;15.20
22322;BMP180;11328;53.928;18.522;2023-04-24T04:05:31;99267.00;;;15.10
22322;BMP180;11328;53.928;18.522;2023-04-24T04:07:58;99261.00;;;14.90
22322;BMP180;11328;53.928;18.522;2023-04-24T04:10:25;99258.00;;;15.00
22322;BMP180;11328;53.928;18.522;2023-04-24T04:12:54;99271.00;;;14.90
22322;BMP180;11328;53.928;18.522;2023-04-24T04:15:21;99269.00;;;14.90
22322;BMP180;11328;53.928;18.522;2023-04-24T04:17:47;99268.00;;;14.90
22322;BMP180;11328;53.928;18.522;2023-04-24T04:20:15;99274.00;;;14.90
22322;BMP180;11328;53.928;18.522;2023-04-24T04:22:42;99259.00;;;15.00
22322;BMP180;11328;53.928;18.522;2023-04-24T04:25:10;99267.00;;;15.00
22322;BMP180;11328;53.928;18.522;2023-04-24T04:27:38;99290.00;;;15.10
22322;BMP180;11328;53.928;18.522;2023-04-24T04:30:06;99273.00;;;15.10
22322;BMP180;11328;53.928;18.522;2023-04-24T04:32:34;99271.00;;;15.20
22322;BMP180;11328;53.928;18.522;2023-04-24T04:35:02;99261.00;;;15.30
22322;BMP180;11328;53.928;18.522;2023-04-24T04:37:33;99271.00;;;15.30
22322;BMP180;11328;53.928;18.522;2023-04-24T04:40:00;99245.00;;;15.30
22322;BMP180;11328;53.928;18.522;2023-04-24T04:42:28;99270.00;;;15.40
22322;BMP180;11328;53.928;18.522;2023-04-24T04:44:55;99271.00;;;15.40
22322;BMP180;11328;53.928;18.522;2023-04-24T04:47:24;99273.00;;;15.50
22322;BMP180;11328;53.928;18.522;2023-04-24T04:49:51;99267.00;;;15.50
22322;BMP180;11328;53.928;18.522;2023-04-24T04:52:19;99256.00;;;15.50
22322;BMP180;11328;53.928;18.522;2023-04-24T04:54:46;99268.00;;;15.30
22322;BMP180;11328;53.928;18.522;2023-04-24T04:57:13;99289.00;;;15.20
22322;BMP180;11328;53.928;18.522;2023-04-24T04:59:40;99274.00;;;15.00
22322;BMP180;11328;53.928;18.522;2023-04-24T05:02:09;99283.00;;;15.10
22322;BMP180;11328;53.928;18.522;2023-04-24T05:04:36;99280.00;;;15.10
22322;BMP180;11328;53.928;18.522;2023-04-24T05:07:03;99281.00;;;15.10
22322;BMP180;11328;53.928;18.522;2023-04-24T05:09:30;99281.00;;;14.90
22322;BMP180;11328;53.928;18.522;2023-04-24T05:11:57;99278.00;;;15.00
22322;BMP180;11328;53.928;18.522;2023-04-24T05:14:24;99267.00;;;15.00
22322;BMP180;11328;53.928;18.522;2023-04-24T05:16:51;99272.00;;;15.10
22322;BMP180;11328;53.928;18.522;2023-04-24T05:19:18;99283.00;;;15.10
22322;BMP180;11328;53.928;18.522;2023-04-24T05:21:45;99269.00;;;15.00
22322;BMP180;11328;53.928;18.522;2023-04-24T05:24:12;99267.00;;;15.10
22322;BMP180;11328;53.928;18.522;2023-04-24T05:26:39;99276.00;;;15.20
22322;BMP180;11328;53.928;18.522;2023-04-24T05:29:06;99279.00;;;15.10
22322;BMP180;11328;53.928;18.522;2023-04-24T05:31:33;99277.00;;;14.90
22322;BMP180;11328;53.928;18.522;2023-04-24T05:34:00;99281.00;;;15.30
22322;BMP180;11328;53.928;18.522;2023-04-24T05:36:27;99281.00;;;15.20
22322;BMP180;11328;53.928;18.522;2023-04-24T05:38:55;99285.00;;;15.40
22322;BMP180;11328;53.928;18.522;2023-04-24T05:41:22;99287.00;;;15.40
22322;BMP180;11328;53.928;18.522;2023-04-24T05:43:49;99283.00;;;15.20
22322;BMP180;11328;53.928;18.522;2023-04-24T05:46:16;99281.00;;;15.20
22322;BMP180;11328;53.928;18.522;2023-04-24T05:48:43;99278.00;;;15.20
22322;BMP180;11328;53.928;18.522;2023-04-24T05:51:10;99278.00;;;15.20
22322;BMP180;11328;53.928;18.522;2023-04-24T05:53:37;99266.00;;;15.10
22322;BMP180;11328;53.928;18.522;2023-04-24T05:56:04;99271.00;;;15.00
22322;BMP180;11328;53.928;18.522;2023-04-24T05:58:31;99266.00;;;14.90
22322;BMP180;11328;53.928;18.522;2023-04-24T06:00:58;99283.00;;;14.90
22322;BMP180;11328;53.928;18.522;2023-04-24T06:03:27;99258.00;;;14.80
22322;BMP180;11328;53.928;18.522;2023-04-24T06:05:54;99256.00;;;14.90
22322;BMP180;11328;53.928;18.522;2023-04-24T06:08:21;99251.00;;;15.10
22322;BMP180;11328;53.928;18.522;2023-04-24T06:10:48;99243.00;;;15.10
22322;BMP180;11328;53.928;18.522;2023-04-24T06:13:15;99256.00;;;15.30
22322;BMP180;11328;53.928;18.522;2023-04-24T06:15:43;99253.00;;;15.30
22322;BMP180;11328;53.928;18.522;2023-04-24T06:18:10;99250.00;;;15.30
22322;BMP180;11328;53.928;18.522;2023-04-24T06:20:37;99255.00;;;15.30
22322;BMP180;11328;53.928;18.522;2023-04-24T06:23:04;99173.00;;;15.20
22322;BMP180;11328;53.928;18.522;2023-04-24T06:25:31;99239.00;;;15.00
22322;BMP180;11328;53.928;18.522;2023-04-24T06:27:58;99244.00;;;15.20
22322;BMP180;11328;53.928;18.522;2023-04-24T06:30:26;99234.00;;;15.30
22322;BMP180;11328;53.928;18.522;2023-04-24T06:32:54;99240.00;;;15.10
22322;BMP180;11328;53.928;18.522;2023-04-24T06:35:28;99236.00;;;15.20
22322;BMP180;11328;53.928;18.522;2023-04-24T06:37:55;99231.00;;;15.10
22322;BMP180;11328;53.928;18.522;2023-04-24T06:40:23;99222.00;;;15.00
22322;BMP180;11328;53.928;18.522;2023-04-24T06:42:50;99219.00;;;15.00
22322;BMP180;11328;53.928;18.522;2023-04-24T06:45:17;99222.00;;;15.00
22322;BMP180;11328;53.928;18.522;2023-04-24T06:47:43;99223.00;;;15.00
22322;BMP180;11328;53.928;18.522;2023-04-24T06:50:11;99218.00;;;14.90
22322;BMP180;11328;53.928;18.522;2023-04-24T06:52:38;99214.00;;;14.90
22322;BMP180;11328;53.928;18.522;2023-04-24T06:55:05;99215.00;;;15.00
22322;BMP180;11328;53.928;18.522;2023-04-24T06:57:33;99210.00;;;15.00
22322;BMP180;11328;53.928;18.522;2023-04-24T07:00:00;99216.00;;;14.80
22322;BMP180;11328;53.928;18.522;2023-04-24T07:02:27;99211.00;;;14.90
22322;BMP180;11328;53.928;18.522;2023-04-24T07:04:54;99220.00;;;14.90
22322;BMP180;11328;53.928;18.522;2023-04-24T07:07:21;99213.00;;;15.10
22322;BMP180;11328;53.928;18.522;2023-04-24T07:09:51;99213.00;;;15.30
22322;BMP180;11328;53.928;18.522;2023-04-24T07:12:18;99215.00;;;15.50
22322;BMP180;11328;53.928;18.522;2023-04-24T07:14:47;99211.00;;;15.40
22322;BMP180;11328;53.928;18.522;2023-04-24T07:17:14;99208.00;;;15.40
22322;BMP180;11328;53.928;18.522;2023-04-24T07:19:41;99214.00;;;15.40
22322;BMP180;11328;53.928;18.522;2023-04-24T07:22:09;99219.00;;;15.60
22322;BMP180;11328;53.928;18.522;2023-04-24T07:24:38;99206.00;;;15.70
22322;BMP180;11328;53.928;18.522;2023-04-24T07:27:05;99206.00;;;15.80
22322;BMP180;11328;53.928;18.522;2023-04-24T07:29:32;99206.00;;;16.00
22322;BMP180;11328;53.928;18.522;2023-04-24T07:31:58;99207.00;;;16.10
22322;BMP180;11328;53.928;18.522;2023-04-24T07:34:29;99209.00;;;16.20
22322;BMP180;11328;53.928;18.522;2023-04-24T07:36:56;99203.00;;;16.30
22322;BMP180;11328;53.928;18.522;2023-04-24T07:39:23;99209.00;;;16.30
22322;BMP180;11328;53.928;18.522;2023-04-24T07:41:50;99196.00;;;16.40
22322;BMP180;11328;53.928;18.522;2023-04-24T07:44:17;99200.00;;;16.60
22322;BMP180;11328;53.928;18.522;2023-04-24T07:46:47;99202.00;;;16.60
22322;BMP180;11328;53.928;18.522;2023-04-24T07:49:14;99205.00;;;16.80
22322;BMP180;11328;53.928;18.522;2023-04-24T07:51:45;99205.00;;;16.90
22322;BMP180;11328;53.928;18.522;2023-04-24T07:54:12;99204.00;;;17.00
22322;BMP180;11328;53.928;18.522;2023-04-24T07:56:41;99187.00;;;17.10
22322;BMP180;11328;53.928;18.522;2023-04-24T07:59:10;99197.00;;;17.20
22322;BMP180;11328;53.928;18.522;2023-04-24T08:01:37;99207.00;;;17.00
22322;BMP180;11328;53.928;18.522;2023-04-24T08:04:05;99199.00;;;17.20
22322;BMP180;11328;53.928;18.522;2023-04-24T08:06:32;99195.00;;;17.30
22322;BMP180;11328;53.928;18.522;2023-04-24T08:09:00;99208.00;;;17.60
22322;BMP180;11328;53.928;18.522;2023-04-24T08:11:27;99198.00;;;17.50
22322;BMP180;11328;53.928;18.522;2023-04-24T08:13:54;99194.00;;;17.60
22322;BMP180;11328;53.928;18.522;2023-04-24T08:16:22;99196.00;;;17.70
22322;BMP180;11328;53.928;18.522;2023-04-24T08:18:51;99200.00;;;17.80
22322;BMP180;11328;53.928;18.522;2023-04-24T08:21:18;99207.00;;;17.80
22322;BMP180;11328;53.928;18.522;2023-04-24T08:23:46;99212.00;;;17.80
22322;BMP180;11328;53.928;18.522;2023-04-24T08:26:13;99214.00;;;17.90
22322;BMP180;11328;53.928;18.522;2023-04-24T08:28:40;99209.00;;;18.00
22322;BMP180;11328;53.928;18.522;2023-04-24T08:31:07;99210.00;;;18.10
22322;BMP180;11328;53.928;18.522;2023-04-24T08:33:34;99208.00;;;18.10
22322;BMP180;11328;53.928;18.522;2023-04-24T08:36:05;99204.00;;;18.20
22322;BMP180;11328;53.928;18.522;2023-04-24T08:38:33;99205.00;;;18.20
22322;BMP180;11328;53.928;18.522;2023-04-24T08:41:01;99213.00;;;18.30
22322;BMP180;11328;53.928;18.522;2023-04-24T08:43:28;99195.00;;;18.30
22322;BMP180;11328;53.928;18.522;2023-04-24T08:45:57;99210.00;;;18.40
22322;BMP180;11328;53.928;18.522;2023-04-24T08:48:27;99207.00;;;18.40
22322;BMP180;11328;53.928;18.522;2023-04-24T08:50:58;99204.00;;;18.40
22322;BMP180;11328;53.928;18.522;2023-04-24T08:53:26;99200.00;;;18.50
22322;BMP180;11328;53.928;18.522;2023-04-24T08:55:55;99203.00;;;18.60
22322;BMP180;11328;53.928;18.522;2023-04-24T08:58:25;99192.00;;;18.70
22322;BMP180;11328;53.928;18.522;2023-04-24T09:00:57;99198.00;;;18.70
22322;BMP180;11328;53.928;18.522;2023-04-24T09:03:27;99198.00;;;18.80
22322;BMP180;11328;53.928;18.522;2023-04-24T09:05:57;99190.00;;;18.90
22322;BMP180;11328;53.928;18.522;2023-04-24T09:08:25;99191.00;;;19.00
22322;BMP180;11328;53.928;18.522;2023-04-24T09:10:53;99197.00;;;19.00
22322;BMP180;11328;53.928;18.522;2023-04-24T09:13:20;99207.00;;;19.00
22322;BMP180;11328;53.928;18.522;2023-04-24T09:15:47;99203.00;;;19.10
22322;BMP180;11328;53.928;18.522;2023-04-24T09:18:14;99209.00;;;19.10
22322;BMP180;11328;53.928;18.522;2023-04-24T09:21:07;99200.00;;;19.20
22322;BMP180;11328;53.928;18.522;2023-04-24T09:23:35;99190.00;;;19.30
22322;BMP180;11328;53.928;18.522;2023-04-24T09:26:03;99195.00;;;19.40
22322;BMP180;11328;53.928;18.522;2023-04-24T09:28:38;99185.00;;;19.50
22322;BMP180;11328;53.928;18.522;2023-04-24T09:31:16;99188.00;;;19.60
22322;BMP180;11328;53.928;18.522;2023-04-24T09:34:01;99187.00;;;19.70
22322;BMP180;11328;53.928;18.522;2023-04-24T09:36:38;99187.00;;;19.80
22322;BMP180;11328;53.928;18.522;2023-04-24T09:39:08;99187.00;;;19.90
22322;BMP180;11328;53.928;18.522;2023-04-24T09:41:51;99181.00;;;20.20
22322;BMP180;11328;53.928;18.522;2023-04-24T09:44:22;99185.00;;;20.50
22322;BMP180;11328;53.928;18.522;2023-04-24T09:46:55;99175.00;;;20.70
22322;BMP180;11328;53.928;18.522;2023-04-24T09:49:27;99177.00;;;20.90
22322;BMP180;11328;53.928;18.522;2023-04-24T09:52:09;99175.00;;;21.00
22322;BMP180;11328;53.928;18.522;2023-04-24T09:54:37;99170.00;;;21.00
22322;BMP180;11328;53.928;18.522;2023-04-24T09:57:07;99181.00;;;21.00
22322;BMP180;11328;53.928;18.522;2023-04-24T09:59:34;99182.00;;;21.00
22322;BMP180;11328;53.928;18.522;2023-04-24T10:02:19;99182.00;;;21.00
22322;BMP180;11328;53.928;18.522;2023-04-24T10:04:56;99171.00;;;21.00
22322;BMP180;11328;53.928;18.522;2023-04-24T10:07:26;99166.00;;;21.10
22322;BMP180;11328;53.928;18.522;2023-04-24T10:09:54;99171.00;;;21.20
22322;BMP180;11328;53.928;18.522;2023-04-24T10:12:22;99167.00;;;21.30
22322;BMP180;11328;53.928;18.522;2023-04-24T10:14:50;99180.00;;;21.40
22322;BMP180;11328;53.928;18.522;2023-04-24T10:17:19;99179.00;;;21.50
22322;BMP180;11328;53.928;18.522;2023-04-24T10:19:47;99167.00;;;21.60
22322;BMP180;11328;53.928;18.522;2023-04-24T10:22:17;99169.00;;;21.80
22322;BMP180;11328;53.928;18.522;2023-04-24T10:24:47;99165.00;;;22.10
22322;BMP180;11328;53.928;18.522;2023-04-24T10:27:15;99172.00;;;22.20
22322;BMP180;11328;53.928;18.522;2023-04-24T10:29:45;99167.00;;;22.20
22322;BMP180;11328;53.928;18.522;2023-04-24T10:32:13;99168.00;;;22.10
22322;BMP180;11328;53.928;18.522;2023-04-24T10:34:40;99173.00;;;22.10
22322;BMP180;11328;53.928;18.522;2023-04-24T10:37:10;99172.00;;;22.00
22322;BMP180;11328;53.928;18.522;2023-04-24T10:39:37;99168.00;;;22.00
22322;BMP180;11328;53.928;18.522;2023-04-24T10:42:27;99174.00;;;21.90
22322;BMP180;11328;53.928;18.522;2023-04-24T10:44:54;99174.00;;;22.00
22322;BMP180;11328;53.928;18.522;2023-04-24T10:47:23;99173.00;;;22.00
22322;BMP180;11328;53.928;18.522;2023-04-24T10:49:51;99168.00;;;22.00
22322;BMP180;11328;53.928;18.522;2023-04-24T10:52:19;99167.00;;;21.90
22322;BMP180;11328;53.928;18.522;2023-04-24T10:54:47;99168.00;;;21.90
22322;BMP180;11328;53.928;18.522;2023-04-24T10:59:51;99169.00;;;21.90
22322;BMP180;11328;53.928;18.522;2023-04-24T11:02:38;99162.00;;;21.90
22322;BMP180;11328;53.928;18.522;2023-04-24T11:05:07;99159.00;;;22.00
22322;BMP180;11328;53.928;18.522;2023-04-24T11:08:12;99163.00;;;22.20
22322;BMP180;11328;53.928;18.522;2023-04-24T11:10:46;99157.00;;;22.30
22322;BMP180;11328;53.928;18.522;2023-04-24T11:13:17;99159.00;;;22.30
22322;BMP180;11328;53.928;18.522;2023-04-24T11:16:20;99152.00;;;22.30
22322;BMP180;11328;53.928;18.522;2023-04-24T11:19:07;99154.00;;;22.30
22322;BMP180;11328;53.928;18.522;2023-04-24T11:21:48;99153.00;;;22.30
22322;BMP180;11328;53.928;18.522;2023-04-24T11:27:16;99160.00;;;22.30
22322;BMP180;11328;53.928;18.522;2023-04-24T11:32:27;99165.00;;;22.40
22322;BMP180;11328;53.928;18.522;2023-04-24T11:37:30;99155.00;;;22.10
22322;BMP180;11328;53.928;18.522;2023-04-24T11:40:00;99157.00;;;22.20
22322;BMP180;11328;53.928;18.522;2023-04-24T11:42:29;99160.00;;;22.10
22322;BMP180;11328;53.928;18.522;2023-04-24T11:44:59;99152.00;;;22.00
22322;BMP180;11328;53.928;18.522;2023-04-24T11:47:30;99152.00;;;22.10
22322;BMP180;11328;53.928;18.522;2023-04-24T11:50:01;99148.00;;;22.00
22322;BMP180;11328;53.928;18.522;2023-04-24T11:52:30;99147.00;;;22.00
22322;BMP180;11328;53.928;18.522;2023-04-24T11:54:57;99148.00;;;22.00
22322;BMP180;11328;53.928;18.522;2023-04-24T11:57:26;99124.00;;;22.00
22322;BMP180;11328;53.928;18.522;2023-04-24T11:59:55;99145.00;;;22.00
22322;BMP180;11328;53.928;18.522;2023-04-24T12:02:24;99161.00;;;22.10
22322;BMP180;11328;53.928;18.522;2023-04-24T12:04:53;99143.00;;;22.10
22322;BMP180;11328;53.928;18.522;2023-04-24T12:07:22;99161.00;;;22.10
22322;BMP180;11328;53.928;18.522;2023-04-24T12:09:57;99157.00;;;22.10
22322;BMP180;11328;53.928;18.522;2023-04-24T12:12:27;99148.00;;;22.10
22322;BMP180;11328;53.928;18.522;2023-04-24T12:14:57;99146.00;;;22.00
22322;BMP180;11328;53.928;18.522;2023-04-24T12:17:31;99145.00;;;22.00
22322;BMP180;11328;53.928;18.522;2023-04-24T12:22:43;99140.00;;;22.20
22322;BMP180;11328;53.928;18.522;2023-04-24T12:25:17;99124.00;;;22.20
22322;BMP180;11328;53.928;18.522;2023-04-24T12:27:45;99134.00;;;22.20
22322;BMP180;11328;53.928;18.522;2023-04-24T12:30:15;99130.00;;;22.10
22322;BMP180;11328;53.928;18.522;2023-04-24T12:32:48;99124.00;;;22.20
22322;BMP180;11328;53.928;18.522;2023-04-24T12:35:21;99120.00;;;22.30
22322;BMP180;11328;53.928;18.522;2023-04-24T12:37:50;99124.00;;;22.40
22322;BMP180;11328;53.928;18.522;2023-04-24T12:40:19;99090.00;;;22.40
22322;BMP180;11328;53.928;18.522;2023-04-24T12:42:49;99099.00;;;22.50
22322;BMP180;11328;53.928;18.522;2023-04-24T12:45:18;99099.00;;;22.50
22322;BMP180;11328;53.928;18.522;2023-04-24T12:47:46;99104.00;;;22.60
22322;BMP180;11328;53.928;18.522;2023-04-24T12:50:15;99079.00;;;22.70
22322;BMP180;11328;53.928;18.522;2023-04-24T12:52:44;99098.00;;;22.80
22322;BMP180;11328;53.928;18.522;2023-04-24T12:55:11;99094.00;;;22.80
22322;BMP180;11328;53.928;18.522;2023-04-24T12:57:39;99092.00;;;23.00
22322;BMP180;11328;53.928;18.522;2023-04-24T13:00:08;99085.00;;;23.00
22322;BMP180;11328;53.928;18.522;2023-04-24T13:02:39;99084.00;;;23.00
22322;BMP180;11328;53.928;18.522;2023-04-24T13:05:07;99078.00;;;23.00
22322;BMP180;11328;53.928;18.522;2023-04-24T13:07:34;99078.00;;;23.10
22322;BMP180;11328;53.928;18.522;2023-04-24T13:10:02;99072.00;;;23.10
22322;BMP180;11328;53.928;18.522;2023-04-24T13:12:29;99060.00;;;23.10
22322;BMP180;11328;53.928;18.522;2023-04-24T13:14:57;99059.00;;;23.20
22322;BMP180;11328;53.928;18.522;2023-04-24T13:17:25;99053.00;;;23.20
22322;BMP180;11328;53.928;18.522;2023-04-24T13:19:55;99058.00;;;23.30
22322;BMP180;11328;53.928;18.522;2023-04-24T13:22:22;99039.00;;;23.20
22322;BMP180;11328;53.928;18.522;2023-04-24T13:24:49;99039.00;;;23.40
22322;BMP180;11328;53.928;18.522;2023-04-24T13:27:17;99036.00;;;23.50
22322;BMP180;11328;53.928;18.522;2023-04-24T13:29:46;99035.00;;;23.60
22322;BMP180;11328;53.928;18.522;2023-04-24T13:32:13;99020.00;;;23.70
22322;BMP180;11328;53.928;18.522;2023-04-24T13:34:40;99026.00;;;23.70
22322;BMP180;11328;53.928;18.522;2023-04-24T13:37:08;99024.00;;;23.80
22322;BMP180;11328;53.928;18.522;2023-04-24T13:39:35;99020.00;;;23.70
22322;BMP180;11328;53.928;18.522;2023-04-24T13:42:02;99025.00;;;23.50
22322;BMP180;11328;53.928;18.522;2023-04-24T13:44:31;99009.00;;;23.40
22322;BMP180;11328;53.928;18.522;2023-04-24T13:47:00;99014.00;;;23.50
22322;BMP180;11328;53.928;18.522;2023-04-24T13:49:27;99005.00;;;23.60
22322;BMP180;11328;53.928;18.522;2023-04-24T13:51:56;99017.00;;;23.80
22322;BMP180;11328;53.928;18.522;2023-04-24T13:54:23;99006.00;;;23.70
22322;BMP180;11328;53.928;18.522;2023-04-24T13:56:53;99006.00;;;23.50
22322;BMP180;11328;53.928;18.522;2023-04-24T13:59:22;99003.00;;;23.50
22322;BMP180;11328;53.928;18.522;2023-04-24T14:01:49;98998.00;;;23.40
22322;BMP180;11328;53.928;18.522;2023-04-24T14:04:19;98995.00;;;23.20
22322;BMP180;11328;53.928;18.522;2023-04-24T14:06:46;99000.00;;;23.10
22322;BMP180;11328;53.928;18.522;2023-04-24T14:09:13;98999.00;;;23.00
22322;BMP180;11328;53.928;18.522;2023-04-24T14:11:40;98990.00;;;22.90
22322;BMP180;11328;53.928;18.522;2023-04-24T14:14:07;99005.00;;;22.80
22322;BMP180;11328;53.928;18.522;2023-04-24T14:16:35;99000.00;;;22.50
22322;BMP180;11328;53.928;18.522;2023-04-24T14:19:03;99005.00;;;22.40